Time;durP1;ratioP1;P1;durP2;ratioP2;P2;SDS_P1;SDS_P2;PMS_P1;PMS_P2;Temp;Humidity;BMP_temperature;BMP_pressure;BME280_temperature;BME280_humidity;BME280_pressure;Samples;Min_cycle;Max_cycle;Signal;HPM_P1;HPM_P2
2021/04/01 00:02:00;;;;;;;66.97;29.97;;;11.40;30.90;;;;;;4917525;29;20941;-82
2021/04/01 00:04:27;;;;;;;61.80;28.80;;;11.30;30.20;;;;;;4910311;29;20505;-82
2021/04/01 00:06:53;;;;;;;64.40;25.17;;;11.50;30.80;;;;;;4898567;29;20492;-82
2021/04/01 00:09:19;;;;;;;61.03;29.73;;;11.50;29.60;;;;;;4902803;29;20454;-82
2021/04/01 00:11:46;;;;;;;55.00;23.07;;;11.60;29.70;;;;;;4898447;29;20561;-82
2021/04/01 00:14:12;;;;;;;72.67;30.63;;;11.60;28.30;;;;;;4906120;29;20501;-82
2021/04/01 00:16:40;;;;;;;57.83;26.03;;;11.70;28.20;;;;;;4917253;29;20460;-82
2021/04/01 00:19:06;;;;;;;51.47;19.73;;;11.60;28.20;;;;;;4910236;29;20524;-82
2021/04/01 00:21:32;;;;;;;44.93;17.43;;;11.50;28.60;;;;;;4897796;29;20603;-82
2021/04/01 00:23:59;;;;;;;44.67;16.20;;;11.60;28.20;;;;;;4903034;29;20478;-82
2021/04/01 00:26:25;;;;;;;50.00;20.00;;;11.60;28.20;;;;;;4916937;29;20553;-82
2021/04/01 00:28:52;;;;;;;50.43;19.40;;;11.60;28.20;;;;;;4913127;29;20470;-82
2021/04/01 00:31:18;;;;;;;51.03;18.93;;;11.50;28.00;;;;;;4898450;29;20512;-82
2021/04/01 00:33:45;;;;;;;44.33;16.80;;;11.50;28.10;;;;;;4899978;29;20979;-82
2021/04/01 00:36:11;;;;;;;45.40;18.43;;;11.50;29.50;;;;;;4915655;29;20458;-82
2021/04/01 00:38:38;;;;;;;40.27;16.33;;;11.40;32.10;;;;;;4915107;29;20639;-82
2021/04/01 00:41:04;;;;;;;41.00;14.57;;;11.40;34.40;;;;;;4897920;29;20554;-82
2021/04/01 00:43:33;;;;;;;52.53;15.23;;;11.30;33.80;;;;;;4899447;29;21050;-82
2021/04/01 00:45:59;;;;;;;51.37;15.23;;;11.40;31.10;;;;;;4897762;29;20485;-82
2021/04/01 00:48:25;;;;;;;42.13;14.57;;;11.40;31.50;;;;;;4904578;29;21036;-82
2021/04/01 00:50:53;;;;;;;53.73;16.70;;;11.40;31.40;;;;;;4915504;29;20467;-82
2021/04/01 00:53:19;;;;;;;50.73;16.47;;;11.40;31.40;;;;;;4910795;29;20482;-82
2021/04/01 00:55:45;;;;;;;53.90;15.73;;;11.30;32.40;;;;;;4897710;29;20956;-82
2021/04/01 00:58:12;;;;;;;40.87;13.77;;;11.50;30.70;;;;;;4902094;29;20559;-82
2021/04/01 01:00:38;;;;;;;43.03;14.53;;;11.60;29.60;;;;;;4916806;29;20489;-82
2021/04/01 01:03:05;;;;;;;39.70;14.73;;;11.80;28.30;;;;;;4915749;29;20843;-82
2021/04/01 01:05:35;;;;;;;34.97;12.97;;;11.80;28.30;;;;;;4915353;29;20560;-82
2021/04/01 01:08:02;;;;;;;37.10;13.33;;;11.90;26.80;;;;;;4900903;29;20466;-82
2021/04/01 01:10:31;;;;;;;46.33;15.73;;;11.90;26.60;;;;;;4897661;29;20979;-82
2021/04/01 01:12:59;;;;;;;45.40;13.90;;;11.90;25.60;;;;;;4911713;29;20541;-82
2021/04/01 01:15:26;;;;;;;48.90;13.93;;;12.00;25.30;;;;;;4916532;29;20827;-82
2021/04/01 01:17:53;;;;;;;49.90;16.50;;;11.90;25.70;;;;;;4903283;29;20965;-82
2021/04/01 01:20:22;;;;;;;50.90;15.87;;;11.90;26.40;;;;;;4896567;29;20468;-82
2021/04/01 01:22:50;;;;;;;43.10;15.40;;;12.00;26.20;;;;;;4909281;29;20457;-82
2021/04/01 01:25:19;;;;;;;43.33;14.60;;;11.90;27.00;;;;;;4916351;29;20610;-82
2021/04/01 01:27:46;;;;;;;53.40;14.70;;;11.70;27.90;;;;;;4905096;29;20512;-82
2021/04/01 01:30:15;;;;;;;47.87;14.70;;;11.60;28.20;;;;;;4897541;29;20965;-82
2021/04/01 01:32:44;;;;;;;49.80;14.30;;;11.30;29.80;;;;;;4901974;29;20456;-82
2021/04/01 01:35:19;;;;;;;50.73;15.50;;;11.30;30.60;;;;;;4896176;29;21024;-82
2021/04/01 01:37:47;;;;;;;45.93;14.43;;;11.20;33.40;;;;;;4907471;29;20840;-82
2021/04/01 01:40:14;;;;;;;47.63;13.93;;;11.00;35.90;;;;;;4919135;29;20461;-82
2021/04/01 01:42:41;;;;;;;48.00;14.60;;;11.00;38.50;;;;;;4918116;29;20546;-82
2021/04/01 01:45:09;;;;;;;40.60;14.70;;;10.90;40.10;;;;;;4919617;29;20856;-82
2021/04/01 01:47:35;;;;;;;41.90;12.47;;;10.90;44.70;;;;;;4908871;29;20546;-82
2021/04/01 01:50:04;;;;;;;48.67;13.40;;;10.90;45.40;;;;;;4899821;29;20462;-82
2021/04/01 01:52:32;;;;;;;36.00;12.60;;;10.80;47.50;;;;;;4901351;29;20504;-82
2021/04/01 01:54:58;;;;;;;45.73;14.40;;;10.70;47.40;;;;;;4900903;29;20945;-82
2021/04/01 01:57:24;;;;;;;40.07;14.60;;;10.60;50.20;;;;;;4901207;29;20554;-82
2021/04/01 01:59:52;;;;;;;55.80;19.73;;;10.60;55.90;;;;;;4900816;29;20467;-82
2021/04/01 02:02:18;;;;;;;50.17;15.20;;;10.60;57.00;;;;;;4907534;29;20552;-82
2021/04/01 02:04:44;;;;;;;48.57;16.50;;;10.50;60.00;;;;;;4918299;29;20929;-82
2021/04/01 02:07:11;;;;;;;50.63;19.07;;;10.30;63.90;;;;;;4913872;29;20924;-82
2021/04/01 02:09:37;;;;;;;59.30;16.17;;;10.30;64.90;;;;;;4900635;29;20513;-82
2021/04/01 02:12:05;;;;;;;63.03;20.40;;;10.30;66.60;;;;;;4901463;29;20494;-82
2021/04/01 02:14:31;;;;;;;49.73;16.40;;;10.20;68.50;;;;;;4900566;29;20466;-82
2021/04/01 02:16:58;;;;;;;46.77;16.60;;;10.10;75.10;;;;;;4906061;29;20544;-82
2021/04/01 02:19:25;;;;;;;42.47;14.20;;;10.10;76.90;;;;;;4918416;29;20462;-83
2021/04/01 02:21:51;;;;;;;45.03;15.33;;;10.00;79.20;;;;;;4914902;29;20549;-82
2021/04/01 02:24:17;;;;;;;42.33;14.10;;;9.90;83.30;;;;;;4908895;29;20485;-83
2021/04/01 02:26:44;;;;;;;40.87;14.73;;;9.90;86.80;;;;;;4905660;29;21106;-82
2021/04/01 02:29:10;;;;;;;53.90;19.40;;;9.80;90.20;;;;;;4908111;29;20546;-82
2021/04/01 02:31:37;;;;;;;62.43;19.83;;;9.80;91.20;;;;;;4903736;29;20463;-81
2021/04/01 02:34:04;;;;;;;54.53;19.20;;;9.80;93.00;;;;;;4912870;29;20461;-81
2021/04/01 02:36:30;;;;;;;45.47;19.60;;;9.50;95.00;;;;;;4917873;29;20468;-82
2021/04/01 02:38:57;;;;;;;57.50;19.93;;;9.60;99.00;;;;;;4918980;29;20509;-82
2021/04/01 02:41:23;;;;;;;53.90;19.50;;;9.50;99.90;;;;;;4918932;29;20468;-82
2021/04/01 02:43:49;;;;;;;57.33;19.53;;;9.60;99.90;;;;;;4919030;29;20541;-81
2021/04/01 02:46:16;;;;;;;47.73;18.80;;;9.40;99.90;;;;;;4917529;29;20497;-82
2021/04/01 02:48:42;;;;;;;61.77;23.60;;;9.50;99.90;;;;;;4910656;29;20462;-83
2021/04/01 02:51:10;;;;;;;57.17;23.17;;;9.60;99.90;;;;;;4916046;29;20477;-83
2021/04/01 02:53:36;;;;;;;57.00;22.93;;;9.50;99.90;;;;;;4915609;29;20549;-82
2021/04/01 02:56:03;;;;;;;73.03;25.20;;;9.50;99.90;;;;;;4908433;29;20455;-82
2021/04/01 02:58:29;;;;;;;59.00;21.73;;;9.50;99.90;;;;;;4909603;29;20545;-82
2021/04/01 03:00:55;;;;;;;53.93;22.27;;;9.50;99.90;;;;;;4911217;29;20453;-82
2021/04/01 03:03:25;;;;;;;45.23;19.20;;;9.60;99.90;;;;;;4902108;29;20545;-82
2021/04/01 03:05:51;;;;;;;49.10;20.07;;;9.50;99.90;;;;;;4899837;29;20549;-82
2021/04/01 03:08:19;;;;;;;49.73;18.63;;;9.60;99.90;;;;;;4911714;29;20458;-82
2021/04/01 03:10:45;;;;;;;52.13;19.17;;;9.60;99.90;;;;;;4918442;29;20969;-82
2021/04/01 03:13:12;;;;;;;59.00;21.93;;;9.50;99.90;;;;;;4907674;29;20477;-82
2021/04/01 03:15:40;;;;;;;60.80;19.73;;;9.50;99.90;;;;;;4918323;29;20476;-82
2021/04/01 03:18:07;;;;;;;50.50;19.13;;;9.50;99.90;;;;;;4902728;29;20959;-82
2021/04/01 03:20:33;;;;;;;49.07;17.63;;;9.50;99.90;;;;;;4898229;29;20574;-82
2021/04/01 03:22:59;;;;;;;47.37;20.03;;;9.50;99.90;;;;;;4906256;29;20464;-82
2021/04/01 03:25:27;;;;;;;52.83;19.80;;;9.60;99.90;;;;;;4916436;29;20611;-82
2021/04/01 03:27:53;;;;;;;47.23;18.17;;;9.50;99.90;;;;;;4917714;29;20549;-82
2021/04/01 03:30:20;;;;;;;55.57;18.80;;;9.40;99.90;;;;;;4914709;29;20482;-82
2021/04/01 03:32:48;;;;;;;49.10;19.73;;;9.40;99.90;;;;;;4910558;29;21036;-82
2021/04/01 03:35:17;;;;;;;57.17;20.50;;;9.40;99.90;;;;;;4897965;29;20470;-82
2021/04/01 03:37:45;;;;;;;45.53;16.70;;;9.40;99.90;;;;;;4901744;29;20896;-82
2021/04/01 03:40:12;;;;;;;53.63;18.20;;;9.40;99.90;;;;;;4898931;29;20461;-82
2021/04/01 03:42:40;;;;;;;37.80;13.87;;;9.30;99.90;;;;;;4911431;29;20469;-82
2021/04/01 03:45:09;;;;;;;39.67;17.70;;;9.30;99.90;;;;;;4915875;29;20535;-82
2021/04/01 03:47:36;;;;;;;46.80;18.40;;;9.30;99.90;;;;;;4917406;29;20529;-82
2021/04/01 03:50:05;;;;;;;44.07;19.00;;;9.30;99.90;;;;;;4912424;29;20454;-82
2021/04/01 03:52:31;;;;;;;51.43;18.30;;;9.20;99.90;;;;;;4903251;29;20455;-82
2021/04/01 03:55:02;;;;;;;42.40;16.83;;;9.30;99.90;;;;;;4916798;29;20454;-82
2021/04/01 03:57:29;;;;;;;40.80;17.87;;;9.30;99.90;;;;;;4902303;29;20505;-80
2021/04/01 04:00:04;;;;;;;47.17;15.30;;;9.20;99.90;;;;;;4898571;29;20546;-77
2021/04/01 04:02:41;;;;;;;36.43;17.13;;;9.30;99.90;;;;;;4902170;29;20462;-82
2021/04/01 04:13:27;;;;;;;41.30;18.47;;;9.20;99.90;;;;;;4918952;29;20441;-82
2021/04/01 04:15:54;;;;;;;48.57;18.90;;;9.30;99.90;;;;;;4917373;29;20460;-82
2021/04/01 04:18:21;;;;;;;56.63;21.20;;;9.30;99.90;;;;;;4917059;29;20509;-81
2021/04/01 04:20:48;;;;;;;55.67;20.10;;;9.20;99.90;;;;;;4916098;29;20480;-82
2021/04/01 04:23:16;;;;;;;36.40;16.03;;;9.30;99.90;;;;;;4918068;29;20464;-82
2021/04/01 04:25:42;;;;;;;39.80;17.13;;;9.30;99.90;;;;;;4916436;29;20545;-82
2021/04/01 04:31:00;;;;;;;35.80;15.30;;;9.30;99.90;;;;;;4885471;29;20925;-82
2021/04/01 04:33:29;;;;;;;34.67;15.97;;;9.20;99.90;;;;;;4901043;29;20516;-82
2021/04/01 04:35:55;;;;;;;37.13;15.97;;;9.20;99.90;;;;;;4905677;29;20463;-82
2021/04/01 04:38:22;;;;;;;48.40;17.93;;;9.20;99.90;;;;;;4899867;29;20879;-82
2021/04/01 04:40:50;;;;;;;37.57;17.60;;;9.20;99.90;;;;;;4916833;29;20949;-82
2021/04/01 04:43:26;;;;;;;37.97;16.47;;;9.10;99.90;;;;;;4907104;29;20462;-84
2021/04/01 04:45:53;;;;;;;41.37;19.97;;;9.10;99.90;;;;;;4897834;29;20578;-82
2021/04/01 04:48:29;;;;;;;50.50;20.00;;;9.00;99.90;;;;;;4907476;29;20853;-82
2021/04/01 04:51:08;;;;;;;49.33;20.90;;;9.10;99.90;;;;;;4915680;29;20459;-82
2021/04/01 04:53:36;;;;;;;39.87;21.50;;;9.10;99.90;;;;;;4905488;29;20960;-82
2021/04/01 04:56:19;;;;;;;52.53;22.27;;;9.10;99.90;;;;;;4897810;29;20459;-83
2021/04/01 04:59:09;;;;;;;44.60;20.70;;;9.20;99.90;;;;;;4909230;29;20898;-83
2021/04/01 05:07:18;;;;;;;42.80;20.47;;;9.20;99.90;;;;;;4891548;29;20457;-83
2021/04/01 05:09:45;;;;;;;60.10;19.93;;;8.90;99.90;;;;;;4916788;29;20464;-83
2021/04/01 05:12:14;;;;;;;51.43;19.30;;;8.90;99.90;;;;;;4912224;29;20964;-82
2021/04/01 05:14:54;;;;;;;30.17;21.20;;;8.80;99.90;;;;;;4918317;29;20468;-83
2021/04/01 05:17:22;;;;;;;37.23;21.77;;;8.70;99.90;;;;;;4920181;29;20499;-83
2021/04/01 05:19:56;;;;;;;42.00;22.83;;;8.70;99.90;;;;;;4916493;29;20467;-82
2021/04/01 05:22:31;;;;;;;39.03;26.30;;;8.60;99.90;;;;;;4920423;29;20468;-83
2021/04/01 05:25:12;;;;;;;;;;;;;;;;;;;;;
2021/04/01 05:27:44;;;;;;;34.20;27.07;;;8.60;99.90;;;;;;4883876;29;20831;-85
2021/04/01 05:30:11;;;;;;;42.70;28.53;;;8.50;99.90;;;;;;4908940;29;20459;-84
2021/04/01 05:32:41;;;;;;;39.53;32.47;;;8.50;99.90;;;;;;4905660;29;21046;-81
2021/04/01 05:35:14;;;;;;;49.67;37.27;;;8.50;99.90;;;;;;4916851;29;20959;-82
2021/04/01 05:37:43;;;;;;;41.27;32.53;;;8.50;99.90;;;;;;4915325;29;20461;-82
2021/04/01 05:43:22;;;;;;;50.87;31.10;;;8.50;99.90;;;;;;4902459;29;20453;-82
2021/04/01 05:45:50;;;;;;;56.33;33.73;;;8.40;99.90;;;;;;4905768;29;20575;-81
2021/04/01 05:48:25;;;;;;;43.43;30.93;;;8.40;99.90;;;;;;4907115;29;20460;-82
2021/04/01 05:51:14;;;;;;;47.37;30.07;;;8.40;99.90;;;;;;4908899;29;20897;-82
2021/04/01 05:59:39;;;;;;;50.60;36.17;;;8.50;99.90;;;;;;4900962;29;20447;-82
2021/04/01 06:02:18;;;;;;;49.40;34.70;;;8.60;99.90;;;;;;4916988;29;20510;-82
2021/04/01 06:04:51;;;;;;;43.00;32.93;;;8.50;99.90;;;;;;4909370;29;20536;-82
2021/04/01 06:07:37;;;;;;;40.50;33.43;;;8.70;99.90;;;;;;4915994;29;20461;-82
2021/04/01 06:10:04;;;;;;;41.60;27.20;;;8.80;99.90;;;;;;4900281;29;20468;-83
2021/04/01 06:12:38;;;;;;;51.60;24.73;;;8.80;99.90;;;;;;4903298;29;20462;-82
2021/04/01 06:15:09;;;;;;;37.67;21.87;;;8.80;99.90;;;;;;4900604;29;20644;-83
2021/04/01 06:17:45;;;;;;;35.63;19.03;;;9.00;99.90;;;;;;4900434;29;20547;-83
2021/04/01 06:20:17;;;;;;;50.40;20.87;;;9.00;99.90;;;;;;4899397;29;20853;-83
2021/04/01 06:23:00;;;;;;;37.00;21.57;;;9.10;99.90;;;;;;4905846;29;20551;-85
2021/04/01 06:25:33;;;;;;;36.13;20.63;;;9.10;99.90;;;;;;4902713;29;20561;-84
2021/04/01 06:28:03;;;;;;;59.73;22.33;;;9.20;99.90;;;;;;4907199;29;20552;-84
2021/04/01 06:30:35;;;;;;;47.03;21.37;;;9.40;99.90;;;;;;4915513;29;20456;-84
2021/04/01 06:33:04;;;;;;;45.42;18.38;;;9.50;99.90;;;;;;4915099;29;20865;-85
2021/04/01 06:35:31;;;;;;;47.40;18.80;;;9.70;99.90;;;;;;4902775;29;20286;-83
2021/04/01 06:38:22;;;;;;;51.80;18.47;;;9.80;99.90;;;;;;4917606;29;20457;-84
2021/04/01 06:41:07;;;;;;;37.50;15.33;;;9.90;99.90;;;;;;4918131;29;20560;-83
2021/04/01 06:43:41;;;;;;;45.17;15.60;;;10.00;99.90;;;;;;4917788;29;20478;-83
2021/04/01 06:46:10;;;;;;;41.13;15.47;;;10.20;99.90;;;;;;4917246;29;20487;-83
2021/04/01 06:49:15;;;;;;;58.83;18.73;;;10.30;99.90;;;;;;4917728;29;20462;-83
2021/04/01 06:51:49;;;;;;;48.47;20.03;;;10.40;99.90;;;;;;4932181;29;20456;-83
2021/04/01 06:54:28;;;;;;;35.27;16.00;;;10.60;99.90;;;;;;4936691;29;20858;-82
2021/04/01 06:57:09;;;;;;;40.57;16.93;;;10.60;99.90;;;;;;4936647;29;20507;-83
2021/04/01 06:59:45;;;;;;;51.00;16.83;;;10.70;99.90;;;;;;4936698;29;20548;-83
2021/04/01 07:02:19;;;;;;;52.47;18.30;;;10.90;99.90;;;;;;4936184;29;20493;-83
2021/04/01 07:04:50;;;;;;;42.37;17.57;;;11.10;99.90;;;;;;4918465;29;20584;-83
2021/04/01 07:07:19;;;;;;;44.03;16.83;;;11.20;99.90;;;;;;4917378;29;20460;-82
2021/04/01 07:10:11;;;;;;;44.10;17.17;;;11.40;99.90;;;;;;4917220;29;20495;-83
2021/04/01 07:12:41;;;;;;;69.47;16.80;;;11.50;99.90;;;;;;4916929;29;20462;-83
2021/04/01 07:15:13;;;;;;;47.43;16.07;;;11.60;98.30;;;;;;4917221;29;20465;-83
2021/04/01 07:17:45;;;;;;;50.27;14.90;;;11.80;71.90;;;;;;4916923;29;20815;-83
2021/04/01 07:20:40;;;;;;;45.83;17.63;;;11.90;74.10;;;;;;4916819;29;20456;-83
2021/04/01 07:32:17;;;;;;;47.03;17.77;;;12.60;57.40;;;;;;4918163;29;20455;-83
2021/04/01 07:34:56;;;;;;;49.37;17.03;;;12.90;62.60;;;;;;4916675;29;20989;-83
2021/04/01 07:48:40;;;;;;;49.97;19.77;;;13.70;48.30;;;;;;4914087;29;20459;-83
2021/04/01 07:51:11;;;;;;;60.90;16.73;;;13.90;40.30;;;;;;4916484;29;20524;-83
2021/04/01 07:53:42;;;;;;;58.93;18.87;;;14.00;36.50;;;;;;4917892;29;20458;-82
2021/04/01 07:56:18;;;;;;;59.67;19.60;;;14.10;25.20;;;;;;4917605;29;20459;-83
2021/04/01 07:58:57;;;;;;;63.47;20.70;;;14.30;30.00;;;;;;4917588;29;20458;-83
2021/04/01 08:01:42;;;;;;;50.67;17.70;;;14.30;24.60;;;;;;4917401;29;20472;-83
2021/04/01 08:04:10;;;;;;;45.10;16.37;;;14.50;21.70;;;;;;4917435;29;20540;-83
2021/04/01 08:06:37;;;;;;;64.20;17.07;;;14.60;21.10;;;;;;4916127;29;20455;-83
2021/04/01 08:09:07;;;;;;;47.33;17.10;;;14.80;23.30;;;;;;4917454;29;20812;-83
2021/04/01 08:11:39;;;;;;;55.93;17.43;;;14.80;24.90;;;;;;4917208;29;20475;-83
2021/04/01 08:14:11;;;;;;;49.93;20.10;;;15.10;22.30;;;;;;4917257;29;20888;-83
2021/04/01 08:16:43;;;;;;;61.00;19.00;;;15.30;18.50;;;;;;4917070;29;20453;-83
2021/04/01 08:19:19;;;;;;;54.00;19.60;;;15.50;17.80;;;;;;4917188;29;20458;-83
2021/04/01 08:22:04;;;;;;;48.93;16.93;;;15.80;16.70;;;;;;4917123;29;20458;-83
2021/04/01 08:24:44;;;;;;;57.50;18.27;;;15.90;15.60;;;;;;4916994;29;20981;-83
2021/04/01 08:27:22;;;;;;;66.13;20.90;;;16.30;17.10;;;;;;4917038;29;20457;-83
2021/04/01 08:33:01;;;;;;;67.63;20.50;;;16.60;11.80;;;;;;4916891;29;20454;-84
2021/04/01 08:35:28;;;;;;;66.43;19.73;;;17.10;10.80;;;;;;4915771;29;20468;-83
2021/04/01 08:38:08;;;;;;;59.63;18.83;;;17.20;9.20;;;;;;4916959;29;20461;-84
2021/04/01 08:40:41;;;;;;;64.10;20.53;;;17.60;9.10;;;;;;4916887;29;20493;-84
2021/04/01 08:43:34;;;;;;;63.57;20.40;;;17.70;4.70;;;;;;4916705;29;20496;-83
2021/04/01 08:46:34;;;;;;;63.40;21.00;;;18.20;3.20;;;;;;4916650;29;20493;-83
2021/04/01 08:49:29;;;;;;;55.63;18.80;;;18.40;2.00;;;;;;4916474;29;20457;-84
2021/04/01 08:52:16;;;;;;;58.03;21.00;;;18.30;1.00;;;;;;4917501;29;20453;-84
2021/04/01 08:54:45;;;;;;;54.00;18.40;;;18.40;2.60;;;;;;4916808;29;20466;-84
2021/04/01 08:57:15;;;;;;;57.27;20.00;;;18.60;1.00;;;;;;4916684;29;20841;-83
2021/04/01 08:59:53;;;;;;;70.00;22.10;;;18.80;3.70;;;;;;4916579;29;20461;-84
2021/04/01 09:02:23;;;;;;;60.27;19.33;;;18.90;1.00;;;;;;4916606;29;20457;-84
2021/04/01 09:04:53;;;;;;;60.03;19.00;;;19.00;1.00;;;;;;4915110;29;20503;-84
2021/04/01 09:07:26;;;;;;;62.30;17.93;;;18.70;1.00;;;;;;4916625;29;20458;-83
2021/04/01 09:10:01;;;;;;;58.90;19.33;;;18.80;1.00;;;;;;4916553;29;20464;-84
2021/04/01 09:12:31;;;;;;;58.53;17.93;;;19.00;1.00;;;;;;4916517;29;20487;-83
2021/04/01 09:15:00;;;;;;;62.83;20.37;;;19.10;1.00;;;;;;4916587;29;20638;-83
2021/04/01 09:17:32;;;;;;;52.77;17.53;;;19.30;1.00;;;;;;4916628;29;20457;-84
2021/04/01 09:20:11;;;;;;;57.40;20.10;;;19.40;1.00;;;;;;4915213;29;20957;-83
2021/04/01 09:22:43;;;;;;;62.43;21.37;;;19.90;1.00;;;;;;4916383;29;20449;-84
2021/04/01 09:25:11;;;;;;;58.57;15.93;;;20.10;1.00;;;;;;4916556;29;20493;-83
2021/04/01 09:27:48;;;;;;;59.13;18.17;;;20.30;1.00;;;;;;4916532;29;20469;-84
2021/04/01 09:30:21;;;;;;;59.70;19.67;;;20.30;1.00;;;;;;4916422;29;20449;-84
2021/04/01 09:32:52;;;;;;;59.80;17.93;;;20.20;1.00;;;;;;4916409;29;20957;-84
2021/04/01 09:35:20;;;;;;;50.83;16.50;;;20.20;1.00;;;;;;4915312;29;20548;-84
2021/04/01 09:37:51;;;;;;;54.50;14.87;;;20.10;1.00;;;;;;4916424;29;20532;-84
2021/04/01 09:40:29;;;;;;;45.90;13.93;;;20.30;1.00;;;;;;4916327;29;20439;-83
2021/04/01 09:43:09;;;;;;;49.73;10.70;;;20.40;1.00;;;;;;4916246;29;20855;-83
2021/04/01 09:45:37;;;;;;;47.97;9.83;;;20.90;1.00;;;;;;4916148;29;20471;-84
2021/04/01 09:48:23;;;;;;;45.80;10.33;;;20.70;1.00;;;;;;4916511;29;20472;-84
2021/04/01 09:50:53;;;;;;;44.10;10.70;;;20.50;1.00;;;;;;4914960;29;20465;-84
2021/04/01 09:53:21;;;;;;;50.53;11.93;;;20.80;1.00;;;;;;4916073;29;20441;-83
2021/04/01 09:55:49;;;;;;;57.60;13.00;;;20.90;1.00;;;;;;4916143;29;20945;-80
2021/04/01 09:58:23;;;;;;;49.07;10.50;;;20.90;1.00;;;;;;4916050;29;20469;-84
2021/04/01 10:01:10;;;;;;;47.43;10.40;;;20.70;1.00;;;;;;4921871;29;20466;-84
2021/04/01 10:03:49;;;;;;;49.40;11.10;;;21.00;1.00;;;;;;4919576;29;20460;-84
2021/04/01 10:06:39;;;;;;;46.70;8.97;;;20.80;1.00;;;;;;4918590;29;20791;-84
2021/04/01 10:09:11;;;;;;;53.97;11.60;;;20.80;1.00;;;;;;4919392;29;20461;-84
2021/04/01 10:11:48;;;;;;;51.37;10.50;;;20.90;1.00;;;;;;4922894;29;20544;-84
2021/04/01 10:14:15;;;;;;;47.77;9.80;;;21.00;1.00;;;;;;4919588;29;20826;-85
2021/04/01 10:19:48;;;;;;;51.60;10.27;;;20.90;1.00;;;;;;4911418;29;20457;-84
2021/04/01 10:22:22;;;;;;;54.97;11.30;;;21.20;1.00;;;;;;4919408;29;20469;-85
2021/04/01 10:25:07;;;;;;;62.23;12.10;;;21.30;1.00;;;;;;4919275;29;20472;-85
2021/04/01 10:27:55;;;;;;;52.73;11.90;;;21.20;1.00;;;;;;4919384;29;20443;-84
2021/04/01 10:30:52;;;;;;;;;;;;;;;;;;;;;
2021/04/01 10:33:31;;;;;;;58.10;10.80;;;21.30;1.00;;;;;;4919175;29;20476;-84
2021/04/01 10:36:44;;;;;;;65.50;12.00;;;21.70;1.00;;;;;;4918168;29;20470;-84
2021/04/01 10:39:11;;;;;;;53.20;12.30;;;21.30;1.00;;;;;;4919035;29;20540;-84
2021/04/01 10:41:49;;;;;;;55.73;11.60;;;21.40;1.00;;;;;;4918904;29;20457;-84
2021/04/01 10:44:21;;;;;;;61.53;10.70;;;21.90;1.00;;;;;;4918850;29;20987;-84
2021/04/01 10:46:51;;;;;;;56.27;11.37;;;21.80;1.00;;;;;;4918916;29;20457;-85
2021/04/01 10:54:52;;;;;;;51.63;11.87;;;22.20;1.00;;;;;;4879666;29;20523;-84
2021/04/01 10:57:49;;;;;;;61.77;14.00;;;22.70;1.00;;;;;;4881176;29;20455;-84
2021/04/01 11:00:41;;;;;;;57.40;12.70;;;22.50;1.00;;;;;;4877500;29;20525;-84
2021/04/01 11:03:17;;;;;;;60.20;14.40;;;22.60;1.00;;;;;;4881207;29;20509;-84
2021/04/01 11:05:45;;;;;;;56.23;11.80;;;22.60;1.00;;;;;;4879612;29;20587;-84
2021/04/01 11:08:46;;;;;;;54.73;11.27;;;22.80;1.00;;;;;;4880894;29;20470;-83
2021/04/01 11:11:14;;;;;;;64.20;14.10;;;22.70;1.00;;;;;;4862462;29;20451;-84
2021/04/01 11:14:02;;;;;;;;;;;;;;;;;;;;;
2021/04/01 11:16:34;;;;;;;61.60;13.57;;;22.60;1.00;;;;;;4866132;29;20451;-84
2021/04/01 11:19:06;;;;;;;60.50;15.40;;;22.30;1.00;;;;;;4880688;29;20434;-84
2021/04/01 11:21:47;;;;;;;64.47;10.60;;;22.50;1.00;;;;;;4879457;29;20528;-84
2021/04/01 11:37:31;;;;;;;54.07;11.40;;;22.00;1.00;;;;;;4897425;29;21051;-84
2021/04/01 11:43:31;;;;;;;55.80;10.43;;;21.70;1.00;;;;;;4864018;29;21011;-83
2021/04/01 11:46:28;;;;;;;59.03;15.10;;;22.30;1.00;;;;;;4896893;29;20848;-83
2021/04/01 11:49:48;;;;;;;;;;;;;;;;;;;;;
2021/04/01 11:52:49;;;;;;;57.47;11.70;;;22.00;1.00;;;;;;4845236;29;20547;-83
2021/04/01 11:58:12;;;;;;;50.93;10.03;;;22.00;1.00;;;;;;4866912;29;20514;-82
2021/04/01 12:00:42;;;;;;;60.97;13.40;;;22.10;1.00;;;;;;4898862;29;20464;-81
2021/04/01 12:03:32;;;;;;;60.00;15.07;;;22.50;1.00;;;;;;4897493;29;20470;-83
2021/04/01 12:05:59;;;;;;;55.33;12.00;;;22.60;1.00;;;;;;4898470;29;20490;-80
2021/04/01 12:09:01;;;;;;;;;;;;;;;;;;;;;
2021/04/01 12:12:38;;;;;;;56.47;14.83;;;22.40;1.00;;;;;;4898436;29;20466;-82
2021/04/01 12:15:43;;;;;;;63.87;14.40;;;22.40;1.00;;;;;;4750512;30;20501;-82
2021/04/01 12:21:34;;;;;;;58.67;14.50;;;22.20;1.00;;;;;;4686046;30;20428;-82
2021/04/01 12:24:07;;;;;;;60.93;15.60;;;22.10;1.00;;;;;;4820956;29;20462;-83
2021/04/01 12:26:52;;;;;;;62.93;16.00;;;21.90;1.00;;;;;;4882201;29;20455;-82
2021/04/01 12:29:22;;;;;;;58.83;16.27;;;22.00;1.00;;;;;;4898224;29;20823;-82
2021/04/01 12:32:01;;;;;;;65.73;15.87;;;22.00;1.00;;;;;;4898234;29;20463;-82
2021/04/01 12:34:34;;;;;;;61.17;15.80;;;22.10;1.00;;;;;;4896783;29;20463;-82
2021/04/01 12:37:04;;;;;;;68.47;17.50;;;22.10;1.00;;;;;;4898028;29;20543;-82
2021/04/01 12:39:39;;;;;;;62.70;15.67;;;22.10;1.00;;;;;;4898369;29;20458;-82
2021/04/01 12:42:41;;;;;;;59.57;14.70;;;22.20;1.00;;;;;;4897980;29;20464;-82
2021/04/01 12:45:36;;;;;;;74.33;15.40;;;22.10;1.00;;;;;;4897884;29;20492;-82
2021/04/01 12:48:13;;;;;;;61.27;12.80;;;21.70;1.00;;;;;;4897685;29;20830;-82
2021/04/01 12:50:46;;;;;;;85.23;17.90;;;21.90;1.00;;;;;;4898068;29;20440;-82
2021/04/01 12:53:14;;;;;;;68.93;17.67;;;22.10;1.00;;;;;;4897931;29;20566;-82
2021/04/01 12:55:48;;;;;;;88.87;20.87;;;21.90;1.00;;;;;;4897923;29;20469;-83
2021/04/01 12:58:34;;;;;;;58.10;13.97;;;22.30;1.00;;;;;;4898155;29;20466;-81
2021/04/01 13:01:21;;;;;;;60.20;17.13;;;22.20;1.00;;;;;;4897825;29;21044;-82
2021/04/01 13:03:48;;;;;;;63.13;18.73;;;21.90;1.00;;;;;;4896425;29;20462;-81
2021/04/01 13:06:19;;;;;;;77.83;18.70;;;21.70;1.00;;;;;;4897824;29;20562;-81
2021/04/01 13:08:55;;;;;;;50.93;12.83;;;21.80;1.00;;;;;;4897997;29;20469;-82
2021/04/01 13:11:26;;;;;;;63.25;17.90;;;21.70;1.00;;;;;;4897613;29;20472;-81
2021/04/01 13:13:55;;;;;;;76.17;20.17;;;21.00;1.00;;;;;;4893439;29;20463;-82
2021/04/01 13:16:22;;;;;;;65.47;20.57;;;21.00;1.00;;;;;;4897787;29;20466;-82
2021/04/01 13:18:53;;;;;;;55.77;18.33;;;20.90;1.00;;;;;;4896482;29;20458;-82
2021/04/01 13:21:35;;;;;;;76.73;23.17;;;21.10;1.00;;;;;;4897730;29;20827;-82
2021/04/01 13:24:07;;;;;;;58.47;19.27;;;20.80;1.00;;;;;;4897656;29;20513;-82
2021/04/01 13:26:41;;;;;;;63.53;18.77;;;21.10;1.00;;;;;;4897602;29;20459;-82
2021/04/01 13:29:10;;;;;;;58.93;19.80;;;20.70;1.00;;;;;;4897686;29;20849;-82
2021/04/01 13:31:44;;;;;;;75.20;22.30;;;20.80;1.00;;;;;;4897750;29;20900;-81
2021/04/01 13:34:20;;;;;;;62.70;18.90;;;20.60;1.00;;;;;;4896638;29;20840;-82
2021/04/01 13:36:54;;;;;;;65.30;19.97;;;20.70;1.00;;;;;;4901272;29;20489;-82
2021/04/01 13:39:30;;;;;;;71.20;23.03;;;20.40;1.00;;;;;;4901170;29;20508;-82
2021/04/01 13:42:14;;;;;;;67.13;25.40;;;21.00;1.00;;;;;;4901633;29;20462;-81
2021/04/01 13:44:43;;;;;;;59.73;22.70;;;20.80;1.00;;;;;;4901268;29;20996;-82
2021/04/01 13:47:18;;;;;;;55.90;17.27;;;20.80;1.00;;;;;;4901297;29;20470;-82
2021/04/01 13:49:45;;;;;;;57.27;19.53;;;20.30;1.00;;;;;;4900051;29;20454;-81
2021/04/01 13:52:20;;;;;;;52.70;16.40;;;20.30;1.00;;;;;;4901081;29;20458;-81
2021/04/01 13:54:51;;;;;;;62.77;19.97;;;19.90;1.00;;;;;;4901067;29;20553;-83
2021/04/01 13:57:45;;;;;;;58.37;19.07;;;19.70;1.00;;;;;;4901137;29;20486;-82
2021/04/01 14:00:24;;;;;;;60.17;19.23;;;19.60;1.00;;;;;;4901178;29;20458;-82
2021/04/01 14:11:34;;;;;;;39.90;11.17;;;20.00;1.00;;;;;;4900790;29;20437;-81
2021/04/01 14:14:03;;;;;;;34.47;7.13;;;19.60;1.00;;;;;;4901535;29;20457;-82
2021/04/01 14:16:32;;;;;;;34.50;8.50;;;19.70;1.00;;;;;;4900911;29;20462;-82
2021/04/01 14:19:03;;;;;;;34.03;7.60;;;19.50;1.00;;;;;;4899249;29;21001;-82
2021/04/01 14:21:29;;;;;;;35.67;7.57;;;19.60;1.00;;;;;;4900511;29;20462;-82
2021/04/01 14:23:56;;;;;;;42.37;12.87;;;19.60;1.00;;;;;;4900409;29;21166;-82
2021/04/01 14:26:27;;;;;;;39.23;10.83;;;19.40;1.00;;;;;;4900449;29;20993;-82
2021/04/01 14:28:54;;;;;;;35.83;8.93;;;19.40;1.00;;;;;;4881120;29;20551;-82
2021/04/01 14:31:21;;;;;;;38.20;7.87;;;19.60;1.00;;;;;;4878944;29;20494;-81
2021/04/01 14:33:51;;;;;;;32.90;7.97;;;19.40;1.00;;;;;;4878177;29;20491;-82
2021/04/01 14:36:24;;;;;;;31.23;6.30;;;19.50;1.00;;;;;;4879275;29;20530;-82
2021/04/01 14:38:54;;;;;;;36.90;8.03;;;19.50;1.00;;;;;;4879220;29;20550;-81
2021/04/01 14:41:26;;;;;;;48.20;11.50;;;19.50;1.00;;;;;;4879672;29;20498;-82